Etusivu
METAR-TAF:

METAR-TAF

Lentoasemat :

Belgradin Nikola Teslan lentoasema

Belgrad, Serbia

Leveyspiiri: 44-49N, Pituuspiiri: 020-17E, korkeus merenpinnasta: 96 m

Tämänhetkinen sää

Tämä raportti tehtiin 34 minuuttia sitten, kello 22.00 UTC
Tuuli 8 kn kaakosta
Lämpötila 29°C
Kosteus 45%
Ilmanpaine 1010 hPa
Näkyvyys 10 km tai enemmän
ei pilviä alle 1500 m:ssä eikä cumulonimbus-pilviä

METAR: LYBE 132200Z 14008KT CAVOK 29/16 Q1010 NOSIG

Aika: 00:34 (22:34 UTC)

Sääennuste

Tämä raportti tehtiin 5 tuntia ja 34 minuuttia sitten, kello 17.00 UTC
Ennuste voimassa 13. päivästä klo 18 UTC - 14. päivään klo 18 UTC
Tuuli 6 kn idästä
Näkyvyys 10 km tai enemmän
ei pilviä alle 1500 m:ssä eikä cumulonimbus-pilviä

TAF: LYBE 131700Z 1318/1418 10006KT CAVOK TX39/1413Z TN23/1403Z

Säähavainnot ja -ennusteet yli 4000 lentoasemalta (METAR- ja TAF-raportit).

Käytössä olevat sääasemat on merkitty karttaan keltaisilla ja punaisilla pisteillä.

Aseta hiiri pisteen päälle nähdäksesi sääaseman nimen.

Klikkaa sitten nähdäksesi säähavainnot ja -ennusteet.

Kartan vaihtaminen: klikkaa mustalla rastilla varustettuja vihreitä pisteitä, niin voit zoomata sisään; viivalla varustettua vihreää pistettä, niin voit zoomata ulos tai vihreitä nuolia, niin pääset viereisille kartoille.


METAR-TAF: